createdAt,value
2024-04-25T00:01:00.770Z,90696.67
2024-04-25T00:03:50.176Z,90687.71
2024-04-25T00:06:18.484Z,90686.98
2024-04-25T00:08:46.802Z,90692.56
2024-04-25T00:11:18.397Z,90699.45
2024-04-25T00:15:02.937Z,90701.98
2024-04-25T00:17:31.172Z,90699.30
2024-04-25T00:20:00.427Z,90701.41
2024-04-25T00:22:28.806Z,90705.61
2024-04-25T00:24:57.002Z,90703.60
2024-04-25T00:27:25.312Z,90703.83
2024-04-25T00:29:55.608Z,90708.20
2024-04-25T00:32:24.219Z,90713.20
2024-04-25T00:34:52.534Z,90713.23
2024-04-25T00:37:20.734Z,90706.69
2024-04-25T00:39:49.063Z,90704.91
2024-04-25T00:42:22.032Z,90705.44
2024-04-25T00:44:50.775Z,90712.48
2024-04-25T00:47:21.482Z,90712.84
2024-04-25T00:49:52.834Z,90716.98
2024-04-25T00:52:21.467Z,90721.64
2024-04-25T00:54:50.432Z,90726.70
2024-04-25T00:57:20.193Z,90726.04
2024-04-25T00:59:51.430Z,90719.61
2024-04-25T01:02:20.887Z,90724.84
2024-04-25T01:04:51.031Z,90729.77
2024-04-25T01:07:20.039Z,90729.98
2024-04-25T01:09:48.270Z,90730.21
2024-04-25T01:12:18.890Z,90736.65
2024-04-25T01:14:47.188Z,90735.89
2024-04-25T01:17:15.386Z,90742.52
2024-04-25T01:19:44.247Z,90747.28
2024-04-25T01:22:13.703Z,90749.25
2024-04-25T01:24:41.932Z,90751.23
2024-04-25T01:27:10.950Z,90751.80
2024-04-25T01:29:40.706Z,90749.61
2024-04-25T01:32:09.849Z,90748.48
2024-04-25T01:34:38.270Z,90747.86
2024-04-25T01:37:06.494Z,90743.13
2024-04-25T01:39:35.414Z,90752.08
2024-04-25T01:42:03.845Z,90751.62
2024-04-25T01:44:32.235Z,90754.33
2024-04-25T01:47:00.484Z,90757.66
2024-04-25T01:49:28.805Z,90751.83
2024-04-25T01:51:57.178Z,90744.74
2024-04-25T01:54:25.416Z,90742.16
2024-04-25T01:56:54.176Z,90744.48
2024-04-25T01:59:22.562Z,90744.26
2024-04-25T02:01:50.817Z,90741.73
2024-04-25T02:04:19.132Z,90737.06
2024-04-25T02:06:47.314Z,90739.27
2024-04-25T02:09:15.673Z,90741.77
2024-04-25T02:11:44.034Z,90750.55
2024-04-25T02:14:12.221Z,90759.87
2024-04-25T02:16:40.398Z,90759.73
2024-04-25T02:19:08.736Z,90760.04
2024-04-25T02:21:55.500Z,90761.12
2024-04-25T02:24:42.371Z,90753.95
2024-04-25T02:27:10.697Z,90746.35
2024-04-25T02:29:39.118Z,90742.66
2024-04-25T02:32:07.655Z,90742.69
2024-04-25T02:34:36.120Z,90741.20
2024-04-25T02:37:04.514Z,90741.58
2024-04-25T02:39:32.932Z,90736.05
2024-04-25T02:42:01.136Z,90736.80
2024-04-25T02:44:29.332Z,90730.56
2024-04-25T02:46:57.502Z,90729.50
2024-04-25T02:49:28.365Z,90724.67
2024-04-25T02:51:56.614Z,90724.56
2024-04-25T02:54:24.809Z,90731.02
2024-04-25T02:56:53.178Z,90735.46
2024-04-25T02:59:21.486Z,90735.20
2024-04-25T03:01:49.766Z,90733.23
2024-04-25T03:04:18.155Z,90737.96
2024-04-25T03:06:46.390Z,90739.34
2024-04-25T03:09:14.709Z,90739.75
2024-04-25T03:11:43.208Z,90741.95
2024-04-25T03:14:11.510Z,90748.20
2024-04-25T03:16:39.943Z,90752.31
2024-04-25T03:19:08.308Z,90752.88
2024-04-25T03:21:36.664Z,90754.86
2024-04-25T03:24:05.039Z,90751.95
2024-04-25T03:26:33.315Z,90751.34
2024-04-25T03:29:01.772Z,90747.88
2024-04-25T03:31:30.168Z,90739.17
2024-04-25T03:33:58.464Z,90739.41
2024-04-25T03:36:26.671Z,90741.52
2024-04-25T03:38:55.231Z,90741.21
2024-04-25T03:41:23.474Z,90741.33
2024-04-25T03:43:51.790Z,90739.63
2024-04-25T03:46:19.923Z,90742.29
2024-04-25T03:48:48.170Z,90742.22
2024-04-25T03:51:17.199Z,90744.39
2024-04-25T03:53:45.580Z,90743.91
2024-04-25T03:56:13.867Z,90740.16
2024-04-25T03:58:42.376Z,90749.69
2024-04-25T04:01:10.702Z,90746.60
2024-04-25T04:03:39.011Z,90743.23
2024-04-25T04:06:07.240Z,90742.45
2024-04-25T04:08:37.438Z,90741.42
2024-04-25T04:11:06.318Z,90741.82
2024-04-25T04:13:36.704Z,90743.08
2024-04-25T04:16:09.286Z,90748.42
2024-04-25T04:18:38.714Z,90757.84
2024-04-25T04:21:09.182Z,90763.20
2024-04-25T04:23:38.749Z,90764.64
2024-04-25T04:26:07.344Z,90765.86
2024-04-25T04:28:35.740Z,90768.54
2024-04-25T04:31:04.234Z,90773.41
2024-04-25T04:36:04.761Z,90779.88
2024-04-25T04:38:33.191Z,90783.23
2024-04-25T04:41:01.422Z,90780.05
2024-04-25T04:43:29.717Z,90774.91
2024-04-25T04:45:59.092Z,90771.27
2024-04-25T04:48:34.324Z,90774.41
2024-04-25T04:51:03.915Z,90778.13
2024-04-25T04:53:32.130Z,90775.05
2024-04-25T04:56:00.527Z,90775.89
2024-04-25T04:58:28.891Z,90777.68
2024-04-25T05:00:57.320Z,90784.67
2024-04-25T05:03:25.844Z,90780.33
2024-04-25T05:05:54.204Z,90775.36
2024-04-25T05:08:23.013Z,90772.27
2024-04-25T05:10:51.428Z,90772.87
2024-04-25T05:13:20.465Z,90773.29
2024-04-25T05:15:48.951Z,90771.27
2024-04-25T05:18:17.338Z,90764.49
2024-04-25T05:20:45.551Z,90764.01
2024-04-25T05:23:14.041Z,90765.53
2024-04-25T05:25:42.423Z,90761.46
2024-04-25T05:28:10.639Z,90766.37
2024-04-25T05:30:39.019Z,90773.11
2024-04-25T05:33:08.597Z,90769.43
2024-04-25T05:35:37.176Z,90768.67
2024-04-25T05:38:05.842Z,90761.02
2024-04-25T05:40:34.082Z,90750.80
2024-04-25T05:43:02.324Z,90755.80
2024-04-25T05:45:30.483Z,90749.20
2024-04-25T05:47:59.048Z,90746.64
2024-04-25T05:50:27.651Z,90755.77
2024-04-25T05:52:55.858Z,90748.93
2024-04-25T05:55:24.445Z,90747.98
2024-04-25T05:57:52.711Z,90741.31
2024-04-25T06:00:21.084Z,90736.46
2024-04-25T06:02:50.208Z,90737.73
2024-04-25T06:05:18.979Z,90732.17
2024-04-25T06:07:47.538Z,90725.11
2024-04-25T06:10:15.883Z,90723.09
2024-04-25T06:12:44.654Z,90717.19
2024-04-25T06:15:13.351Z,90711.56
2024-04-25T06:17:42.325Z,90714.15
2024-04-25T06:20:13.704Z,90721.08
2024-04-25T06:22:42.031Z,90725.30
2024-04-25T06:25:10.336Z,90726.27
2024-04-25T06:27:38.743Z,90733.92
2024-04-25T06:30:07.408Z,90741.93
2024-04-25T06:32:38.692Z,90754.28
2024-04-25T06:35:07.943Z,90755.64
2024-04-25T06:37:36.317Z,90756.80
2024-04-25T06:40:04.953Z,90752.14
2024-04-25T06:42:33.293Z,90752.19
2024-04-25T06:45:01.752Z,90757.73
2024-04-25T06:47:30.233Z,90763.27
2024-04-25T06:49:58.453Z,90765.53
2024-04-25T06:52:26.769Z,90765.80
2024-04-25T06:54:55.011Z,90760.55
2024-04-25T06:57:23.263Z,90755.82
2024-04-25T06:59:54.020Z,90758.42
2024-04-25T07:02:25.664Z,90750.46
2024-04-25T07:04:56.458Z,90754.52
2024-04-25T07:07:26.120Z,90753.38
2024-04-25T07:09:54.381Z,90758.29
2024-04-25T07:12:22.645Z,90764.63
2024-04-25T07:14:50.962Z,90768.87
2024-04-25T07:17:19.432Z,90766.06
2024-04-25T07:19:47.835Z,90767.07
2024-04-25T07:22:16.390Z,90770.59
2024-04-25T07:24:44.770Z,90772.95
2024-04-25T07:27:13.285Z,90774.39
2024-04-25T07:29:46.179Z,90775.39
2024-04-25T07:32:18.466Z,90775.27
2024-04-25T07:34:47.032Z,90778.59
2024-04-25T07:37:15.365Z,90783.60
2024-04-25T07:39:46.613Z,90780.50
2024-04-25T07:42:15.658Z,90774.34
2024-04-25T07:44:44.221Z,90778.59
2024-04-25T07:47:12.828Z,90780.42
2024-04-25T07:49:41.128Z,90776.71
2024-04-25T07:52:09.756Z,90774.68
2024-04-25T07:54:38.025Z,90781.03
2024-04-25T07:57:06.345Z,90787.29
2024-04-25T07:59:34.614Z,90786.11
2024-04-25T08:02:02.990Z,90788.30
2024-04-25T08:04:31.387Z,90787.96
2024-04-25T08:06:59.580Z,90789.83
2024-04-25T08:09:28.037Z,90785.31
2024-04-25T08:11:56.426Z,90783.37
2024-04-25T08:14:24.821Z,90779.56
2024-04-25T08:16:54.489Z,90777.82
2024-04-25T08:19:22.710Z,90776.66
2024-04-25T08:21:50.937Z,90777.91
2024-04-25T08:24:20.554Z,90782.90
2024-04-25T08:26:48.993Z,90783.41
2024-04-25T08:29:18.262Z,90779.91
2024-04-25T08:31:46.558Z,90779.39
2024-04-25T08:34:14.918Z,90779.23
2024-04-25T08:36:43.334Z,90778.39
2024-04-25T08:39:11.717Z,90778.05
2024-04-25T08:41:44.935Z,90778.44
2024-04-25T08:44:15.142Z,90783.19
2024-04-25T08:46:46.946Z,90781.52
2024-04-25T08:49:19.910Z,90784.20
2024-04-25T08:51:51.170Z,90783.52
2024-04-25T08:54:22.586Z,90788.32
2024-04-25T08:56:50.820Z,90778.72
2024-04-25T08:59:19.160Z,90780.41
2024-04-25T09:01:50.661Z,90774.70
2024-04-25T09:04:21.063Z,90773.38
2024-04-25T09:06:49.448Z,90769.64
2024-04-25T09:09:17.966Z,90775.19
2024-04-25T09:11:56.182Z,90781.77
2024-04-25T09:14:25.076Z,90783.15
2024-04-25T09:16:53.455Z,90780.13
2024-04-25T09:19:26.144Z,90773.46
2024-04-25T09:21:55.939Z,90769.10
2024-04-25T09:24:24.307Z,90772.19
2024-04-25T09:26:52.768Z,90767.80
2024-04-25T09:29:22.002Z,90763.14
2024-04-25T09:31:53.512Z,90759.70
2024-04-25T09:34:22.511Z,90756.90
2024-04-25T09:36:51.542Z,90759.87
2024-04-25T09:39:20.193Z,90748.35
2024-04-25T09:41:49.427Z,90748.65
2024-04-25T09:44:18.442Z,90751.15
2024-04-25T09:46:59.638Z,90752.33
2024-04-25T09:49:34.986Z,90748.91
2024-04-25T09:52:33.466Z,90743.27
2024-04-25T09:55:05.224Z,90738.20
2024-04-25T09:57:34.155Z,90736.15
2024-04-25T10:00:02.370Z,90730.58
2024-04-25T10:02:33.241Z,90725.04
2024-04-25T10:05:02.193Z,90721.14
2024-04-25T10:07:32.304Z,90720.94
2024-04-25T10:10:01.216Z,90716.52
2024-04-25T10:12:29.536Z,90710.52
2024-04-25T10:14:59.727Z,90710.75
2024-04-25T10:17:30.680Z,90709.16
2024-04-25T10:20:04.998Z,90708.52
2024-04-25T10:22:37.415Z,90707.40
2024-04-25T10:25:15.892Z,90705.80
2024-04-25T10:27:46.121Z,90706.17
2024-04-25T10:30:15.717Z,90703.64
2024-04-25T10:32:44.346Z,90702.34
2024-04-25T10:35:16.303Z,90701.92
2024-04-25T10:37:47.165Z,90697.73
2024-04-25T10:40:17.991Z,90697.91
2024-04-25T10:43:01.411Z,90698.02
2024-04-25T10:45:33.751Z,90695.27
2024-04-25T10:48:02.369Z,90693.42
2024-04-25T10:50:31.249Z,90691.94
2024-04-25T10:53:01.245Z,90694.55
2024-04-25T10:55:29.860Z,90689.41
2024-04-25T10:58:01.048Z,90673.17
2024-04-25T11:00:29.529Z,90677.52
2024-04-25T11:03:01.654Z,90683.60
2024-04-25T11:05:30.653Z,90686.09
2024-04-25T11:07:59.210Z,90687.77
2024-04-25T11:10:28.257Z,90683.86
2024-04-25T11:12:59.257Z,90676.84
2024-04-25T11:15:27.768Z,90671.31
2024-04-25T11:18:04.268Z,90667.95
2024-04-25T11:20:38.318Z,90666.36
2024-04-25T11:23:15.983Z,90666.69
2024-04-25T11:25:48.871Z,90670.14
2024-04-25T11:28:20.338Z,90666.19
2024-04-25T11:30:50.259Z,90665.30
2024-04-25T11:33:23.546Z,90665.09
2024-04-25T11:35:52.456Z,90667.73
2024-04-25T11:38:21.161Z,90664.91
2024-04-25T11:40:50.440Z,90669.02
2024-04-25T11:43:20.400Z,90669.11
2024-04-25T11:45:49.034Z,90665.79
2024-04-25T11:48:21.781Z,90670.06
2024-04-25T11:50:50.319Z,90675.09
2024-04-25T11:53:18.920Z,90670.90
2024-04-25T11:55:47.376Z,90676.86
2024-04-25T11:58:15.675Z,90671.67
2024-04-25T12:00:49.215Z,90665.98
2024-04-25T12:03:17.794Z,90667.13
2024-04-25T12:05:47.078Z,90661.23
2024-04-25T12:08:15.683Z,90658.50
2024-04-25T12:10:54.192Z,90661.73
2024-04-25T12:13:26.116Z,90660.13
2024-04-25T12:15:54.334Z,90663.94
2024-04-25T12:18:25.598Z,90661.61
2024-04-25T12:20:55.256Z,90653.14
2024-04-25T12:23:26.289Z,90647.73
2024-04-25T12:25:55.750Z,90646.89
2024-04-25T12:28:24.108Z,90655.85
2024-04-25T12:30:52.546Z,90664.88
2024-04-25T12:33:20.967Z,90666.04
2024-04-25T12:35:49.366Z,90661.78
2024-04-25T12:38:18.201Z,90658.23
2024-04-25T12:40:46.520Z,90657.40
2024-04-25T12:43:15.301Z,90658.34
2024-04-25T12:45:48.146Z,90657.57
2024-04-25T12:48:16.527Z,90657.24
2024-04-25T12:50:44.718Z,90653.86
2024-04-25T12:53:13.090Z,90655.77
2024-04-25T12:55:41.584Z,90651.08
2024-04-25T12:58:09.842Z,90640.52
2024-04-25T13:00:38.201Z,90639.56
2024-04-25T13:03:18.490Z,90644.71
2024-04-25T13:05:47.828Z,90650.33
2024-04-25T13:08:36.059Z,90655.01
2024-04-25T13:11:04.756Z,90656.65
2024-04-25T13:13:34.175Z,90654.79
2024-04-25T13:16:02.697Z,90664.69
2024-04-25T13:18:32.755Z,90666.68
2024-04-25T13:21:03.855Z,90674.98
2024-04-25T13:23:32.477Z,90679.06
2024-04-25T13:26:00.805Z,90686.66
2024-04-25T13:28:33.020Z,90690.86
2024-04-25T13:31:04.369Z,90698.45
2024-04-25T13:33:36.419Z,90708.35
2024-04-25T13:36:05.947Z,90712.26
2024-04-25T13:38:34.243Z,90725.31
2024-04-25T13:41:02.509Z,90732.21
2024-04-25T13:43:30.761Z,90734.46
2024-04-25T13:45:59.398Z,90727.97
2024-04-25T13:48:27.794Z,90724.09
2024-04-25T13:50:56.202Z,90719.42
2024-04-25T13:53:26.355Z,90721.55
2024-04-25T13:55:57.873Z,90727.30
2024-04-25T13:58:26.204Z,90736.98
2024-04-25T14:00:54.401Z,90727.78
2024-04-25T14:03:23.092Z,90717.23
2024-04-25T14:05:51.941Z,90713.58
2024-04-25T14:08:20.593Z,90711.93
2024-04-25T14:10:51.131Z,90713.48
2024-04-25T14:13:20.406Z,90720.94
2024-04-25T14:15:48.846Z,90719.67
2024-04-25T14:18:17.175Z,90731.67
2024-04-25T14:20:45.841Z,90740.33
2024-04-25T14:23:14.219Z,90749.27
2024-04-25T14:26:01.119Z,90749.90
2024-04-25T14:28:44.686Z,90741.69
2024-04-25T14:31:14.305Z,90744.30
2024-04-25T14:33:45.338Z,90740.67
2024-04-25T14:36:13.963Z,90745.39
2024-04-25T14:38:43.154Z,90750.98
2024-04-25T14:41:12.246Z,90747.25
2024-04-25T14:43:42.989Z,90747.89
2024-04-25T14:46:11.746Z,90755.55
2024-04-25T14:48:40.349Z,90765.45
2024-04-25T14:51:08.811Z,90766.20
2024-04-25T14:53:37.177Z,90768.18
2024-04-25T14:56:06.093Z,90763.70
2024-04-25T14:58:34.780Z,90761.59
2024-04-25T15:01:03.042Z,90759.70
2024-04-25T15:03:31.495Z,90763.13
2024-04-25T15:06:00.369Z,90771.25
2024-04-25T15:08:28.810Z,90776.20
2024-04-25T15:10:57.050Z,90777.72
2024-04-25T15:13:25.375Z,90778.27
2024-04-25T15:15:58.563Z,90776.93
2024-04-25T15:18:27.653Z,90775.25
2024-04-25T15:20:56.141Z,90767.66
2024-04-25T15:23:24.717Z,90761.02
2024-04-25T15:25:53.456Z,90761.23
2024-04-25T15:28:21.879Z,90770.12
2024-04-25T15:30:50.282Z,90770.84
2024-04-25T15:33:21.164Z,90772.06
2024-04-25T15:35:49.587Z,90772.52
2024-04-25T15:38:17.840Z,90768.91
2024-04-25T15:40:46.115Z,90771.86
2024-04-25T15:43:14.524Z,90769.43
2024-04-25T15:45:42.686Z,90767.64
2024-04-25T15:48:13.318Z,90762.48
2024-04-25T15:50:41.769Z,90767.63
2024-04-25T15:53:10.260Z,90765.38
2024-04-25T15:55:38.680Z,90769.11
2024-04-25T15:58:07.142Z,90768.36
2024-04-25T16:00:35.455Z,90776.81
2024-04-25T16:03:04.981Z,90768.36
2024-04-25T16:05:33.695Z,90768.98
2024-04-25T16:08:01.955Z,90763.23
2024-04-25T16:10:30.320Z,90755.27
2024-04-25T16:12:58.684Z,90750.57
2024-04-25T16:15:27.102Z,90751.84
2024-04-25T16:17:55.573Z,90755.14
2024-04-25T16:20:24.091Z,90759.16
2024-04-25T16:22:52.449Z,90760.27
2024-04-25T16:25:20.963Z,90764.77
2024-04-25T16:27:49.312Z,90765.63
2024-04-25T16:30:17.629Z,90770.63
2024-04-25T16:32:46.315Z,90777.39
2024-04-25T16:35:14.949Z,90779.58
2024-04-25T16:37:43.585Z,90776.65
2024-04-25T16:40:12.004Z,90774.42
2024-04-25T16:42:40.440Z,90767.21
2024-04-25T16:45:08.930Z,90761.41
2024-04-25T16:47:37.638Z,90763.80
2024-04-25T16:50:06.747Z,90765.42
2024-04-25T16:52:35.034Z,90760.63
2024-04-25T16:55:03.606Z,90767.02
2024-04-25T16:57:32.818Z,90769.84
2024-04-25T17:00:01.129Z,90772.35
2024-04-25T17:02:29.588Z,90767.10
2024-04-25T17:04:57.943Z,90757.36
2024-04-25T17:07:26.122Z,90754.47
2024-04-25T17:09:54.491Z,90755.89
2024-04-25T17:12:22.645Z,90758.77
2024-04-25T17:14:50.997Z,90764.20
2024-04-25T17:17:19.524Z,90770.73
2024-04-25T17:19:47.906Z,90768.73
2024-04-25T17:22:16.219Z,90767.49
2024-04-25T17:24:44.660Z,90763.11
2024-04-25T17:27:13.307Z,90765.89
2024-04-25T17:29:42.509Z,90767.76
2024-04-25T17:32:13.893Z,90767.80
2024-04-25T17:34:44.183Z,90767.36
2024-04-25T17:37:13.427Z,90775.45
2024-04-25T17:39:41.865Z,90783.47
2024-04-25T17:42:10.625Z,90780.79
2024-04-25T17:44:40.914Z,90779.27
2024-04-25T17:47:12.255Z,90781.00
2024-04-25T17:49:40.952Z,90779.86
2024-04-25T17:52:09.777Z,90788.17
2024-04-25T17:54:38.124Z,90793.65
2024-04-25T17:57:06.591Z,90800.21
2024-04-25T17:59:35.143Z,90803.52
2024-04-25T18:02:05.564Z,90810.98
2024-04-25T18:04:34.874Z,90813.79
2024-04-25T18:07:08.268Z,90815.52
2024-04-25T18:09:36.689Z,90819.98
2024-04-25T18:12:05.218Z,90821.58
2024-04-25T18:14:33.726Z,90821.91
2024-04-25T18:17:02.115Z,90825.45
2024-04-25T18:19:30.480Z,90828.17
2024-04-25T18:22:00.182Z,90825.59
2024-04-25T18:24:30.340Z,90830.81
2024-04-25T18:26:58.878Z,90837.30
2024-04-25T18:29:27.351Z,90839.86
2024-04-25T18:31:55.589Z,90840.31
2024-04-25T18:34:23.948Z,90842.16
2024-04-25T18:36:52.383Z,90845.11
2024-04-25T18:39:20.782Z,90850.23
2024-04-25T18:41:49.135Z,90855.02
2024-04-25T18:44:17.523Z,90858.14
2024-04-25T18:46:45.845Z,90856.70
2024-04-25T18:49:14.395Z,90854.90
2024-04-25T18:51:44.603Z,90857.45
2024-04-25T18:54:13.566Z,90856.80
2024-04-25T18:56:42.069Z,90859.83
2024-04-25T18:59:10.827Z,90863.71
2024-04-25T19:01:39.164Z,90865.96
2024-04-25T19:04:07.561Z,90869.28
2024-04-25T19:06:36.181Z,90870.98
2024-04-25T19:09:04.684Z,90871.88
2024-04-25T19:11:33.110Z,90873.38
2024-04-25T19:14:04.154Z,90881.37
2024-04-25T19:16:32.577Z,90885.70
2024-04-25T19:19:01.176Z,90886.71
2024-04-25T19:21:43.079Z,90892.71
2024-04-25T19:24:13.952Z,90887.43
2024-04-25T19:26:43.221Z,90888.47
2024-04-25T19:29:18.338Z,90892.23
2024-04-25T19:31:48.780Z,90890.52
2024-04-25T19:34:24.079Z,90888.27
2024-04-25T19:36:53.371Z,90891.52
2024-04-25T19:39:21.600Z,90892.20
2024-04-25T19:41:50.527Z,90895.69
2024-04-25T19:44:19.340Z,90901.12
2024-04-25T19:46:48.096Z,90902.27
2024-04-25T19:49:19.559Z,90900.77
2024-04-25T19:51:48.972Z,90899.34
2024-04-25T19:54:20.199Z,90896.48
2024-04-25T19:56:48.946Z,90895.89
2024-04-25T19:59:18.362Z,90900.77
2024-04-25T20:01:50.289Z,90898.05
2024-04-25T20:04:19.649Z,90896.64
2024-04-25T20:06:51.685Z,90902.64
2024-04-25T20:09:20.863Z,90904.35
2024-04-25T20:11:49.312Z,90904.71
2024-04-25T20:14:17.773Z,90907.45
2024-04-25T20:16:46.796Z,90906.08
2024-04-25T20:19:33.664Z,90906.89
2024-04-25T20:22:02.170Z,90904.34
2024-04-25T20:24:30.559Z,90905.26
2024-04-25T20:26:59.062Z,90906.19
2024-04-25T20:29:29.800Z,90916.09
2024-04-25T20:31:58.918Z,90916.73
2024-04-25T20:34:27.423Z,90920.33
2024-04-25T20:36:55.754Z,90923.94
2024-04-25T20:39:24.411Z,90929.37
2024-04-25T20:41:53.866Z,90927.48
2024-04-25T20:44:26.250Z,90926.97
2024-04-25T20:46:54.670Z,90925.23
2024-04-25T20:49:23.067Z,90923.70
2024-04-25T20:51:51.428Z,90924.65
2024-04-25T20:54:19.567Z,90925.02
2024-04-25T20:56:47.904Z,90923.48
2024-04-25T20:59:16.138Z,90919.69
2024-04-25T21:01:45.515Z,90914.98
2024-04-25T21:04:13.844Z,90916.77
2024-04-25T21:06:44.811Z,90917.41
2024-04-25T21:09:14.895Z,90910.42
2024-04-25T21:11:43.031Z,90908.95
2024-04-25T21:14:11.292Z,90906.66
2024-04-25T21:16:44.045Z,90910.79
2024-04-25T21:19:12.786Z,90911.28
2024-04-25T21:21:45.572Z,90913.20
2024-04-25T21:24:14.843Z,90912.77
2024-04-25T21:26:49.611Z,90912.66
2024-04-25T21:29:18.066Z,90909.89
2024-04-25T21:31:46.683Z,90900.77
2024-04-25T21:34:16.071Z,90898.04
2024-04-25T21:36:44.326Z,90905.16
2024-04-25T21:39:13.006Z,90909.98
2024-04-25T21:41:42.709Z,90910.01
2024-04-25T21:44:12.251Z,90909.80
2024-04-25T21:46:43.026Z,90910.58
2024-04-25T21:49:13.705Z,90912.39
2024-04-25T21:51:46.377Z,90909.14
2024-04-25T21:54:15.137Z,90907.92
2024-04-25T21:56:44.747Z,90911.20
2024-04-25T21:59:13.190Z,90907.51
2024-04-25T22:01:54.829Z,90905.09
2024-04-25T22:04:23.570Z,90901.98
2024-04-25T22:06:51.879Z,90900.67
2024-04-25T22:09:20.162Z,90900.38
2024-04-25T22:11:48.567Z,90899.59
2024-04-25T22:14:16.820Z,90898.71
2024-04-25T22:16:45.202Z,90898.30
2024-04-25T22:19:13.663Z,90895.27
2024-04-25T22:21:48.560Z,90893.48
2024-04-25T22:24:18.065Z,90893.23
2024-04-25T22:26:47.817Z,90894.73
2024-04-25T22:29:16.163Z,90896.18
2024-04-25T22:31:44.874Z,90895.43
2024-04-25T22:34:13.514Z,90893.26
2024-04-25T22:36:41.755Z,90890.50
2024-04-25T22:39:10.313Z,90887.45
2024-04-25T22:41:41.092Z,90889.02
2024-04-25T22:44:09.527Z,90891.66
2024-04-25T22:46:38.009Z,90890.66
2024-04-25T22:49:06.319Z,90889.07
2024-04-25T22:51:34.662Z,90886.41
2024-04-25T22:54:03.026Z,90889.36
2024-04-25T22:56:31.460Z,90886.67
2024-04-25T22:58:59.819Z,90891.20
2024-04-25T23:01:31.314Z,90891.66
2024-04-25T23:04:00.767Z,90894.19
2024-04-25T23:06:29.302Z,90893.35
2024-04-25T23:08:59.101Z,90888.66
2024-04-25T23:11:27.825Z,90885.89
2024-04-25T23:13:56.072Z,90888.45
2024-04-25T23:16:24.534Z,90885.83
2024-04-25T23:18:53.099Z,90882.14
2024-04-25T23:21:21.424Z,90878.17
2024-04-25T23:23:49.642Z,90878.02
2024-04-25T23:26:17.990Z,90875.91
2024-04-25T23:28:46.286Z,90874.34
2024-04-25T23:31:19.385Z,90874.77
2024-04-25T23:33:48.009Z,90877.57
2024-04-25T23:36:16.478Z,90877.60
2024-04-25T23:38:45.246Z,90876.41
2024-04-25T23:41:13.518Z,90875.88
2024-04-25T23:43:41.863Z,90878.64
2024-04-25T23:46:10.082Z,90877.73
2024-04-25T23:48:40.549Z,90882.73
2024-04-25T23:51:09.804Z,90881.90
2024-04-25T23:53:38.591Z,90883.11
2024-04-25T23:56:09.766Z,90886.99
2024-04-25T23:58:38.561Z,90888.64
